Time;durP1;ratioP1;P1;durP2;ratioP2;P2;SDS_P1;SDS_P2;PMS_P1;PMS_P2;Temp;Humidity;BMP_temperature;BMP_pressure;BME280_temperature;BME280_humidity;BME280_pressure;Samples;Min_cycle;Max_cycle;Signal;HPM_P1;HPM_P2
2023/01/05 00:01:38;;;;;;;3.72;0.63;;;;;;;10.09;100.00;100246.72;4971205;28;20174;-49
2023/01/05 00:04:05;;;;;;;2.17;0.60;;;;;;;9.92;100.00;100266.16;4970765;28;20119;-48
2023/01/05 00:06:31;;;;;;;4.30;0.68;;;;;;;9.97;nan;100261.47;4971225;28;20259;-51
2023/01/05 00:08:58;;;;;;;1.55;0.38;;;;;;;9.92;100.00;100260.91;4958858;28;20228;-48
2023/01/05 00:22:31;;;;;;;2.63;0.60;;;;;;;9.97;100.00;100263.25;4969969;28;20677;-54
2023/01/05 00:24:59;;;;;;;0.93;0.40;;;;;;;9.98;100.00;100257.06;4967055;28;20079;-54
2023/01/05 00:27:25;;;;;;;1.13;0.50;;;;;;;10.40;100.00;100275.47;4973842;28;20089;-54
2023/01/05 00:29:51;;;;;;;1.50;0.52;;;;;;;10.09;100.00;100262.47;4970151;28;20193;-56
2023/01/05 00:32:16;;;;;;;1.02;0.47;;;;;;;10.10;100.00;100263.31;4961626;28;20186;-53
2023/01/05 00:34:42;;;;;;;5.93;0.98;;;;;;;10.09;100.00;100282.66;4965320;28;20187;-55
2023/01/05 00:37:07;;;;;;;4.00;0.65;;;;;;;10.30;100.00;100268.16;4961199;28;20087;-53
2023/01/05 00:39:32;;;;;;;3.92;0.75;;;;;;;10.22;100.00;100260.75;4969049;28;20096;-53
2023/01/05 00:41:58;;;;;;;4.00;0.90;;;;;;;10.08;100.00;100263.44;4965105;28;20547;-51
2023/01/05 00:44:24;;;;;;;4.38;0.70;;;;;;;10.19;87.57;100273.25;4967564;28;20454;-55
2023/01/05 00:46:49;;;;;;;2.95;0.82;;;;;;;10.24;90.37;100268.53;4968641;28;20721;-55
2023/01/05 00:49:15;;;;;;;7.65;0.93;;;;;;;10.28;nan;100261.31;4971612;28;20087;-55
2023/01/05 00:51:41;;;;;;;4.35;0.82;;;;;;;10.27;88.92;100264.88;4970086;28;20174;-53
2023/01/05 00:54:06;;;;;;;3.53;0.63;;;;;;;10.28;100.00;100259.53;4969326;28;20079;-54
2023/01/05 00:56:32;;;;;;;4.68;0.80;;;;;;;10.24;100.00;100258.03;4964484;28;20087;-53
2023/01/05 00:58:58;;;;;;;3.85;0.82;;;;;;;10.31;100.00;100253.19;4967451;28;20080;-55
2023/01/05 01:01:23;;;;;;;2.60;0.45;;;;;;;10.43;99.00;100249.84;4970622;28;20098;-50
2023/01/05 01:03:48;;;;;;;6.00;0.70;;;;;;;10.49;100.00;100274.91;4967077;28;21277;-54
2023/01/05 01:06:15;;;;;;;1.40;0.50;;;;;;;10.55;100.00;100247.34;4960376;28;20448;-49
2023/01/05 01:08:41;;;;;;;3.55;0.70;;;;;;;10.47;100.00;100247.84;4965429;28;20095;-53
2023/01/05 01:11:08;;;;;;;4.13;0.68;;;;;;;10.51;100.00;100244.91;4968820;28;20555;-49
2023/01/05 01:13:34;;;;;;;2.08;1.13;;;;;;;10.49;100.00;100243.34;4966232;28;20145;-49
2023/01/05 01:16:10;;;;;;;4.15;0.60;;;;;;;10.45;100.00;100247.94;4967097;28;20074;-50
2023/01/05 01:18:36;;;;;;;0.93;0.40;;;;;;;10.39;100.00;100258.88;4966317;28;20207;-50
2023/01/05 01:21:02;;;;;;;2.58;0.52;;;;;;;10.71;87.72;100249.78;4966420;28;20459;-58
2023/01/05 01:23:27;;;;;;;7.43;2.28;;;;;;;10.53;100.00;100234.28;4966957;28;20099;-51
2023/01/05 01:25:53;;;;;;;3.13;0.95;;;;;;;10.39;100.00;100250.13;4967189;28;20092;-48
2023/01/05 01:28:18;;;;;;;6.53;1.25;;;;;;;10.47;100.00;100239.94;4963088;28;20490;-50
2023/01/05 01:30:44;;;;;;;3.55;1.02;;;;;;;10.59;100.00;100244.41;4963926;28;20521;-59
2023/01/05 01:33:09;;;;;;;2.25;0.77;;;;;;;10.54;100.00;100230.69;4961443;28;20862;-54
2023/01/05 01:35:38;;;;;;;6.45;1.20;;;;;;;10.70;100.00;100251.59;4967961;28;20557;-50
2023/01/05 01:38:03;;;;;;;1.70;0.55;;;;;;;10.63;100.00;100232.75;4966104;28;20107;-51
2023/01/05 01:40:29;;;;;;;2.53;0.80;;;;;;;10.73;87.90;100240.00;4968673;28;20107;-50
2023/01/05 01:42:54;;;;;;;2.25;0.80;;;;;;;10.64;100.00;100230.94;4966865;28;20115;-53
2023/01/05 01:45:24;;;;;;;5.47;0.82;;;;;;;10.86;100.00;100222.44;4966170;28;20428;-48
2023/01/05 01:47:59;;;;;;;2.92;0.70;;;;;;;10.78;88.98;100235.28;4967606;28;20083;-51
2023/01/05 01:50:32;;;;;;;6.03;1.73;;;;;;;10.77;100.00;100229.19;4971998;28;20087;-49
2023/01/05 01:53:04;;;;;;;3.83;1.50;;;;;;;10.69;100.00;100234.13;4968100;28;20102;-52
2023/01/05 01:55:31;;;;;;;12.55;1.13;;;;;;;10.92;100.00;100227.31;4969789;28;20098;-49
2023/01/05 01:57:59;;;;;;;2.67;1.25;;;;;;;10.81;nan;100220.13;4968444;28;20118;-49
2023/01/05 02:00:24;;;;;;;4.28;1.00;;;;;;;10.69;100.00;100218.34;4964330;28;20087;-49
2023/01/05 02:02:52;;;;;;;6.00;1.08;;;;;;;10.68;100.00;100224.53;4971052;28;20095;-50
2023/01/05 02:05:22;;;;;;;4.72;0.85;;;;;;;10.81;100.00;100228.03;4968128;28;20141;-49
2023/01/05 02:07:48;;;;;;;7.05;1.25;;;;;;;10.66;87.57;100214.09;4967519;28;20091;-49
2023/01/05 02:10:16;;;;;;;8.82;1.63;;;;;;;10.80;88.26;100241.31;4967681;28;20097;-49
2023/01/05 02:12:47;;;;;;;5.22;1.38;;;;;;;10.87;100.00;100208.34;4974881;28;20118;-49
2023/01/05 02:15:28;;;;;;;5.97;1.20;;;;;;;10.70;88.25;100221.78;4973419;28;20078;-54
2023/01/05 02:18:06;;;;;;;4.18;0.80;;;;;;;10.97;100.00;100222.56;4969604;28;20400;-53
2023/01/05 02:20:56;;;;;;;5.82;1.55;;;;;;;10.87;100.00;100226.78;4970843;28;20617;-52
2023/01/05 02:24:07;;;;;;;8.25;1.52;;;;;;;10.86;100.00;100225.09;4973642;28;20157;-50
2023/01/05 02:26:52;;;;;;;2.13;0.55;;;;;;;10.83;100.00;100212.13;4970481;28;20102;-49
2023/01/05 02:29:31;;;;;;;5.00;1.08;;;;;;;10.78;100.00;100222.13;4969462;28;20091;-50
2023/01/05 02:32:10;;;;;;;4.75;1.00;;;;;;;10.89;100.00;100219.63;4997328;28;20154;-49
2023/01/05 02:34:57;;;;;;;8.10;1.30;;;;;;;10.94;100.00;100207.00;4964773;28;20169;-49
2023/01/05 02:37:42;;;;;;;5.80;1.45;;;;;;;10.90;93.32;100205.50;4969802;28;20079;-50
2023/01/05 02:40:14;;;;;;;8.80;0.88;;;;;;;11.26;100.00;100201.31;4968027;28;20079;-51
2023/01/05 02:42:42;;;;;;;3.08;1.10;;;;;;;11.17;100.00;100199.31;4967753;28;20614;-52
2023/01/05 02:45:08;;;;;;;1.67;0.65;;;;;;;10.96;88.29;100205.13;4972602;28;20555;-50
2023/01/05 02:47:37;;;;;;;4.50;0.90;;;;;;;11.04;90.45;100195.84;4967860;28;20626;-56
2023/01/05 02:50:21;;;;;;;4.45;0.90;;;;;;;11.01;nan;100206.56;4969255;28;20098;-49
2023/01/05 02:52:56;;;;;;;3.95;0.85;;;;;;;11.01;90.46;100204.78;4966098;28;20165;-51
2023/01/05 02:55:31;;;;;;;2.78;0.80;;;;;;;11.19;nan;100218.47;4969416;28;20078;-48
2023/01/05 02:58:04;;;;;;;7.20;0.82;;;;;;;11.22;100.00;100231.44;4969438;28;20550;-48
2023/01/05 03:00:53;;;;;;;5.35;1.00;;;;;;;11.23;100.00;100221.72;4967921;28;20075;-49
2023/01/05 03:03:34;;;;;;;4.68;0.70;;;;;;;11.18;nan;100224.69;4971308;28;20102;-50
2023/01/05 03:06:22;;;;;;;5.72;0.85;;;;;;;11.26;100.00;100219.75;4970913;28;20079;-49
2023/01/05 03:08:54;;;;;;;3.63;0.73;;;;;;;11.26;100.00;100226.78;4969484;28;20510;-56
2023/01/05 03:14:11;;;;;;;2.80;0.52;;;;;;;11.23;100.00;100227.88;4971733;28;19986;-52
2023/01/05 03:16:37;;;;;;;4.35;0.90;;;;;;;11.41;100.00;100259.16;4967556;28;20540;-53
2023/01/05 03:35:55;;;;;;;4.78;0.80;;;;;;;11.19;100.00;100257.97;4969875;28;20442;-51
2023/01/05 03:38:32;;;;;;;3.38;0.88;;;;;;;11.20;100.00;100259.66;4966538;28;20107;-49
2023/01/05 03:41:01;;;;;;;2.85;0.63;;;;;;;11.04;100.00;100273.00;4960659;28;20145;-53
2023/01/05 03:43:27;;;;;;;4.20;0.93;;;;;;;11.35;100.00;100294.63;4970455;28;20183;-49
2023/01/05 03:45:55;;;;;;;4.93;0.75;;;;;;;11.26;100.00;100279.47;4965376;28;20162;-49
2023/01/05 03:48:22;;;;;;;4.95;0.80;;;;;;;11.11;100.00;100276.09;4969160;28;20142;-50
2023/01/05 03:50:48;;;;;;;3.55;0.80;;;;;;;11.20;100.00;100277.25;4965436;28;20502;-50
2023/01/05 03:53:14;;;;;;;4.15;1.50;;;;;;;11.16;93.34;100273.97;4973918;28;20566;-49
2023/01/05 03:55:40;;;;;;;4.40;1.10;;;;;;;10.86;100.00;100280.34;4967801;28;20075;-49
2023/01/05 03:58:05;;;;;;;5.40;0.65;;;;;;;11.13;100.00;100295.25;4964766;28;20098;-49
2023/01/05 04:00:31;;;;;;;9.63;0.88;;;;;;;11.28;100.00;100286.31;4973244;28;20555;-50
2023/01/05 04:02:57;;;;;;;1.85;0.47;;;;;;;11.34;100.00;100298.25;4961283;28;20107;-51
2023/01/05 04:05:22;;;;;;;6.85;0.70;;;;;;;10.96;100.00;100293.75;4970181;28;20079;-51
2023/01/05 04:07:48;;;;;;;6.45;0.73;;;;;;;11.26;100.00;100297.91;4969662;28;20153;-53
2023/01/05 04:10:13;;;;;;;3.05;0.80;;;;;;;10.97;100.00;100285.75;4968640;28;20174;-51
2023/01/05 04:12:39;;;;;;;5.55;1.33;;;;;;;10.91;100.00;100301.97;4965835;28;20091;-49
2023/01/05 04:15:05;;;;;;;6.93;1.58;;;;;;;10.86;100.00;100304.03;4967770;28;20082;-51
2023/01/05 04:17:30;;;;;;;2.75;0.82;;;;;;;10.92;100.00;100310.69;4971907;28;20535;-52
2023/01/05 04:19:56;;;;;;;4.07;0.77;;;;;;;10.85;88.99;100293.63;4970525;28;20086;-53
2023/01/05 04:22:22;;;;;;;2.95;0.68;;;;;;;10.87;100.00;100302.28;4963939;28;20106;-50
2023/01/05 04:24:47;;;;;;;5.18;1.00;;;;;;;10.74;100.00;100312.75;4970106;28;20075;-50
2023/01/05 04:27:13;;;;;;;7.28;2.03;;;;;;;10.60;88.25;100298.72;4969309;28;20078;-52
2023/01/05 04:29:38;;;;;;;6.43;1.55;;;;;;;10.64;99.03;100316.00;4953239;28;20087;-49
2023/01/05 04:32:04;;;;;;;4.22;1.52;;;;;;;-147.11;100.00;61570.13;4969035;28;20111;-48
2023/01/05 04:34:30;;;;;;;2.85;0.90;;;;;;;-147.11;100.00;61570.13;4969808;28;20103;-49
2023/01/05 04:36:55;;;;;;;6.45;1.08;;;;;;;-147.11;100.00;61570.13;4967465;28;20107;-52
2023/01/05 04:39:20;;;;;;;8.70;0.93;;;;;;;-147.11;100.00;61570.13;4965944;28;20571;-49
2023/01/05 04:41:47;;;;;;;3.95;1.02;;;;;;;-147.11;100.00;61570.13;4965854;28;20079;-49
2023/01/05 04:44:13;;;;;;;7.55;1.00;;;;;;;-147.11;100.00;61570.13;4965902;28;20083;-49
2023/01/05 04:46:38;;;;;;;6.00;0.77;;;;;;;-147.11;100.00;61570.13;4966030;28;20499;-49
2023/01/05 04:49:04;;;;;;;5.20;1.00;;;;;;;-147.11;100.00;61570.13;4970751;28;20105;-52
2023/01/05 04:51:29;;;;;;;8.45;1.50;;;;;;;-147.11;100.00;61570.13;4966187;28;20079;-49
2023/01/05 04:53:55;;;;;;;4.53;0.70;;;;;;;-147.11;100.00;61570.13;4967745;28;20712;-48
2023/01/05 04:56:20;;;;;;;10.00;1.23;;;;;;;-147.11;100.00;61570.13;4967954;28;20496;-52
2023/01/05 04:58:46;;;;;;;5.35;1.02;;;;;;;-147.11;100.00;61570.13;4962139;28;20080;-49
2023/01/05 05:01:11;;;;;;;9.00;3.53;;;;;;;-147.11;100.00;61570.13;4968469;28;20177;-49
2023/01/05 05:03:36;;;;;;;8.18;1.02;;;;;;;-147.11;100.00;61570.13;4970688;28;20087;-55
2023/01/05 05:06:02;;;;;;;6.57;1.23;;;;;;;-147.11;100.00;61570.13;4963940;28;20169;-51
2023/01/05 05:08:28;;;;;;;1.77;0.50;;;;;;;-147.11;100.00;61570.13;4965340;28;20095;-55
2023/01/05 05:10:53;;;;;;;5.28;0.85;;;;;;;-147.11;100.00;61570.13;4963643;28;20535;-52
2023/01/05 05:13:18;;;;;;;8.20;1.23;;;;;;;-147.11;100.00;61570.13;4965039;28;20103;-52
2023/01/05 05:15:45;;;;;;;5.32;0.75;;;;;;;-147.11;100.00;61570.13;4963306;28;20506;-52
2023/01/05 05:18:10;;;;;;;6.05;0.82;;;;;;;-147.11;100.00;61570.13;4970606;28;20757;-56
2023/01/05 05:20:40;;;;;;;3.70;0.63;;;;;;;-147.11;100.00;61570.13;4960859;28;20084;-53
2023/01/05 05:23:05;;;;;;;7.80;1.33;;;;;;;-147.11;100.00;61570.13;4963101;28;20091;-53
2023/01/05 05:25:31;;;;;;;5.90;0.98;;;;;;;-147.11;100.00;61570.13;4969716;28;20075;-52
2023/01/05 05:27:56;;;;;;;3.38;0.85;;;;;;;-147.11;100.00;61570.13;4967184;28;20134;-55
2023/01/05 05:30:22;;;;;;;10.45;1.38;;;;;;;-147.11;100.00;61570.13;4948787;28;20549;-51
2023/01/05 05:32:47;;;;;;;5.75;1.00;;;;;;;-147.11;100.00;61570.13;4962833;28;20109;-50
2023/01/05 05:35:13;;;;;;;4.75;1.08;;;;;;;-147.11;100.00;61570.13;4958887;28;20086;-49
2023/01/05 05:37:38;;;;;;;6.45;1.13;;;;;;;-147.11;100.00;61570.13;4962959;28;20122;-48
2023/01/05 05:40:04;;;;;;;6.40;0.73;;;;;;;-147.11;100.00;61570.13;4968558;28;20170;-51
2023/01/05 05:42:29;;;;;;;1.60;0.40;;;;;;;-147.11;100.00;61570.13;4960998;28;20095;-52
2023/01/05 05:44:55;;;;;;;2.95;0.55;;;;;;;-147.11;100.00;61570.13;4949129;28;20198;-50
2023/01/05 05:47:20;;;;;;;8.63;1.25;;;;;;;-147.11;100.00;61570.13;4931556;28;20198;-48
2023/01/05 05:49:46;;;;;;;6.25;0.73;;;;;;;-147.11;100.00;61570.13;4939576;28;20150;-52
2023/01/05 05:52:11;;;;;;;1.27;0.30;;;;;;;-147.11;100.00;61570.13;4887237;28;20115;-54
2023/01/05 05:54:37;;;;;;;5.05;0.80;;;;;;;-147.11;100.00;61570.13;4948216;28;20087;-52
2023/01/05 05:57:02;;;;;;;3.97;0.90;;;;;;;-147.11;100.00;61570.13;4941127;28;20606;-55
2023/01/05 05:59:28;;;;;;;1.88;0.80;;;;;;;-147.11;100.00;61570.13;4947041;28;20095;-56
2023/01/05 06:01:53;;;;;;;4.13;0.63;;;;;;;-147.11;100.00;61570.13;4934884;28;20602;-56
2023/01/05 06:04:19;;;;;;;0.95;0.30;;;;;;;-147.11;100.00;61570.13;4939890;28;20500;-53
2023/01/05 06:06:44;;;;;;;4.45;0.50;;;;;;;-147.11;100.00;61570.13;4949671;28;20079;-56
2023/01/05 06:09:10;;;;;;;3.55;0.82;;;;;;;-147.11;100.00;61570.13;4945117;28;20091;-51
2023/01/05 06:11:35;;;;;;;2.47;0.60;;;;;;;-147.11;100.00;61570.13;4955609;28;20092;-50
2023/01/05 06:14:01;;;;;;;2.50;0.80;;;;;;;-147.11;100.00;61570.13;4952095;28;20108;-54
2023/01/05 06:16:27;;;;;;;5.15;1.15;;;;;;;-147.11;100.00;61570.13;4951426;28;20563;-54
2023/01/05 06:18:53;;;;;;;3.25;0.73;;;;;;;-147.11;100.00;61570.13;4950183;28;20091;-51
2023/01/05 06:21:20;;;;;;;8.95;1.15;;;;;;;-147.11;100.00;61570.13;4949049;28;20128;-54
2023/01/05 06:23:45;;;;;;;6.13;1.00;;;;;;;-147.11;100.00;61570.13;4947821;28;20103;-57
2023/01/05 06:26:11;;;;;;;8.15;0.93;;;;;;;-147.11;100.00;61570.13;4950455;28;20145;-56
2023/01/05 06:28:36;;;;;;;4.97;1.25;;;;;;;-147.11;100.00;61570.13;4948702;28;20113;-58
2023/01/05 06:31:02;;;;;;;4.18;0.98;;;;;;;-147.11;100.00;61570.13;4948017;28;20158;-52
2023/01/05 06:33:27;;;;;;;6.93;0.75;;;;;;;-147.11;100.00;61570.13;4952691;28;20095;-56
2023/01/05 06:35:53;;;;;;;5.88;1.55;;;;;;;-147.11;100.00;61570.13;4947516;28;20081;-52
2023/01/05 06:38:20;;;;;;;7.30;1.45;;;;;;;-147.11;100.00;61570.13;4948695;28;20183;-55
2023/01/05 06:40:47;;;;;;;9.88;1.40;;;;;;;-147.11;100.00;61570.13;4953470;28;20080;-54
2023/01/05 06:43:12;;;;;;;5.20;0.82;;;;;;;-147.11;100.00;61570.13;4936099;28;20102;-51
2023/01/05 06:45:38;;;;;;;13.10;1.42;;;;;;;-147.11;100.00;61570.13;4950153;28;20084;-50
2023/01/05 06:48:04;;;;;;;4.68;0.85;;;;;;;-147.11;100.00;61570.13;4945183;28;20123;-55
2023/01/05 06:50:30;;;;;;;4.35;0.98;;;;;;;-147.11;100.00;61570.13;4946139;28;20091;-52
2023/01/05 06:52:57;;;;;;;3.22;0.50;;;;;;;-147.11;100.00;61570.13;4944083;28;20106;-51
2023/01/05 06:55:22;;;;;;;0.47;0.43;;;;;;;-147.11;100.00;61570.13;4947384;28;20090;-52
2023/01/05 06:57:48;;;;;;;5.60;0.98;;;;;;;-147.11;100.00;61570.13;4945536;28;20079;-53
2023/01/05 07:00:14;;;;;;;5.38;1.15;;;;;;;-147.11;100.00;61570.13;4948074;28;20546;-50
2023/01/05 07:02:40;;;;;;;4.35;0.70;;;;;;;-147.11;100.00;61570.13;4949698;28;20130;-53
2023/01/05 07:05:06;;;;;;;6.85;1.08;;;;;;;-147.11;100.00;61570.13;4942831;28;20083;-51
2023/01/05 07:07:32;;;;;;;3.72;0.50;;;;;;;-147.11;100.00;61570.13;4946102;28;20088;-51
2023/01/05 07:09:57;;;;;;;3.63;0.70;;;;;;;-147.11;100.00;61570.13;4947033;28;20082;-56
2023/01/05 07:12:23;;;;;;;5.95;1.00;;;;;;;-147.11;100.00;61570.13;4939817;28;20626;-51
2023/01/05 07:14:49;;;;;;;6.57;1.38;;;;;;;-147.11;100.00;61570.13;4943352;28;20086;-52
2023/01/05 07:17:14;;;;;;;6.88;1.27;;;;;;;-147.11;100.00;61570.13;4947598;28;20159;-51
2023/01/05 07:19:40;;;;;;;4.22;0.88;;;;;;;-147.11;100.00;61570.13;4950353;28;20215;-50
2023/01/05 07:22:06;;;;;;;6.45;1.60;;;;;;;-147.11;100.00;61570.13;4950491;28;20452;-51
2023/01/05 07:24:32;;;;;;;5.72;1.67;;;;;;;-147.11;100.00;61570.13;4941959;28;20094;-55
2023/01/05 07:26:58;;;;;;;11.25;0.75;;;;;;;-147.11;100.00;61570.13;4946579;28;20079;-51
2023/01/05 07:29:24;;;;;;;3.13;0.80;;;;;;;-147.11;100.00;61570.13;4951216;28;20185;-50
2023/01/05 07:31:53;;;;;;;6.00;1.17;;;;;;;-147.11;100.00;61570.13;4946040;28;20459;-51
2023/01/05 07:34:19;;;;;;;3.80;0.68;;;;;;;-147.11;100.00;61570.13;4946619;28;20568;-53
2023/01/05 07:36:45;;;;;;;6.43;1.10;;;;;;;-147.11;100.00;61570.13;4949176;28;20088;-55
2023/01/05 07:39:10;;;;;;;6.63;1.10;;;;;;;-147.11;100.00;61570.13;4950123;28;20079;-53
2023/01/05 07:41:36;;;;;;;3.40;0.80;;;;;;;-147.11;100.00;61570.13;4945189;28;20083;-51
2023/01/05 07:44:01;;;;;;;6.00;0.77;;;;;;;-147.11;100.00;61570.13;4943417;28;20165;-55
2023/01/05 07:46:27;;;;;;;2.00;0.40;;;;;;;-147.11;100.00;61570.13;4945963;28;20174;-51
2023/01/05 07:48:52;;;;;;;5.93;0.80;;;;;;;-147.11;100.00;61570.13;4941466;28;20088;-51
2023/01/05 07:51:18;;;;;;;4.50;0.90;;;;;;;-147.11;100.00;61570.13;4948215;28;20108;-54
2023/01/05 07:53:43;;;;;;;5.97;0.70;;;;;;;-147.11;100.00;61570.13;4945575;28;20107;-55
2023/01/05 07:56:10;;;;;;;3.95;0.82;;;;;;;-147.11;100.00;61570.13;4947647;28;20079;-50
2023/01/05 07:58:35;;;;;;;3.25;0.90;;;;;;;-147.11;100.00;61570.13;4944002;28;20715;-58
2023/01/05 08:01:06;;;;;;;5.90;1.40;;;;;;;-147.11;100.00;61570.13;4945673;28;20090;-53
2023/01/05 08:03:31;;;;;;;6.25;0.70;;;;;;;-147.11;100.00;61570.13;4944135;28;20448;-50
2023/01/05 08:05:57;;;;;;;3.72;0.82;;;;;;;-147.11;100.00;61570.13;4936560;28;20595;-52
2023/01/05 08:08:22;;;;;;;4.68;1.00;;;;;;;-147.11;100.00;61570.13;4949973;28;20186;-54
2023/01/05 08:10:48;;;;;;;6.32;1.23;;;;;;;-147.11;100.00;61570.13;4953617;28;20075;-50
2023/01/05 08:16:01;;;;;;;5.60;1.10;;;;;;;-147.11;100.00;61570.13;4947385;28;20098;-55
2023/01/05 08:18:27;;;;;;;3.35;1.00;;;;;;;-147.11;100.00;61570.13;4935556;28;20463;-59
2023/01/05 08:20:55;;;;;;;6.15;0.88;;;;;;;-147.11;100.00;61570.13;4945699;28;20540;-58
2023/01/05 08:23:21;;;;;;;6.18;0.80;;;;;;;-147.11;100.00;61570.13;4946390;28;20103;-54
2023/01/05 08:25:47;;;;;;;0.55;0.35;;;;;;;-147.11;100.00;61570.13;4950652;28;20090;-54
2023/01/05 08:28:12;;;;;;;2.50;0.43;;;;;;;-147.11;100.00;61570.13;4944416;28;20111;-51
2023/01/05 08:30:38;;;;;;;3.20;1.02;;;;;;;-147.11;100.00;61570.13;4947285;28;20149;-53
2023/01/05 08:33:04;;;;;;;4.88;1.15;;;;;;;-147.11;100.00;61570.13;4945435;28;20103;-55
2023/01/05 08:35:30;;;;;;;6.25;0.98;;;;;;;-147.11;100.00;61570.13;4949881;28;20086;-53
2023/01/05 08:37:55;;;;;;;4.70;0.70;;;;;;;-147.11;100.00;61570.13;4952337;28;20087;-54
2023/01/05 08:40:21;;;;;;;2.83;0.60;;;;;;;-147.11;100.00;61570.13;4948206;28;20459;-53
2023/01/05 08:42:47;;;;;;;5.07;0.52;;;;;;;-147.11;100.00;61570.13;4947006;28;20208;-57
2023/01/05 08:45:16;;;;;;;4.53;0.55;;;;;;;-147.11;100.00;61570.13;4945149;28;20082;-54
2023/01/05 08:47:42;;;;;;;3.70;0.60;;;;;;;-147.11;100.00;61570.13;4944040;28;20087;-53
2023/01/05 08:50:09;;;;;;;3.50;0.40;;;;;;;-147.11;100.00;61570.13;4948786;28;20079;-56
2023/01/05 08:52:35;;;;;;;4.70;0.80;;;;;;;-147.11;100.00;61570.13;4949292;28;20342;-55
2023/01/05 08:55:01;;;;;;;2.60;0.80;;;;;;;-147.11;100.00;61570.13;4951281;28;20547;-59
2023/01/05 08:57:26;;;;;;;2.08;0.50;;;;;;;-147.11;100.00;61570.13;4948692;28;20170;-57
2023/01/05 08:59:52;;;;;;;2.55;0.60;;;;;;;-147.11;100.00;61570.13;4949538;28;20195;-52
2023/01/05 09:02:18;;;;;;;2.65;0.45;;;;;;;-147.11;100.00;61570.13;4950153;28;20102;-52
2023/01/05 09:04:43;;;;;;;2.70;0.75;;;;;;;-147.11;100.00;61570.13;4937477;28;20115;-52
2023/01/05 09:07:09;;;;;;;3.65;0.80;;;;;;;-147.11;100.00;61570.13;4937585;28;20110;-51
2023/01/05 09:09:34;;;;;;;7.43;0.88;;;;;;;-147.11;100.00;61570.13;4935027;28;20083;-55
2023/01/05 09:12:00;;;;;;;3.63;0.77;;;;;;;-147.11;100.00;61570.13;4938934;28;20096;-56
2023/01/05 09:14:25;;;;;;;6.20;0.47;;;;;;;-147.11;100.00;61570.13;4939587;28;20170;-51
2023/01/05 09:16:51;;;;;;;5.70;1.00;;;;;;;-147.11;100.00;61570.13;4942565;28;20171;-57
2023/01/05 09:19:16;;;;;;;3.58;0.68;;;;;;;-147.11;100.00;61570.13;4943824;28;20091;-50
2023/01/05 09:21:41;;;;;;;4.05;0.77;;;;;;;-147.11;100.00;61570.13;4936589;28;20100;-50
2023/01/05 09:24:11;;;;;;;5.38;0.55;;;;;;;-147.11;100.00;61570.13;4948180;28;20936;-51
2023/01/05 09:26:37;;;;;;;4.95;0.43;;;;;;;-147.11;100.00;61570.13;4949299;28;20167;-50
2023/01/05 09:29:02;;;;;;;31.33;12.10;;;;;;;-147.11;100.00;61570.13;4945451;28;20087;-50
2023/01/05 09:31:28;;;;;;;4.55;0.73;;;;;;;-147.11;100.00;61570.13;4945967;28;20115;-50
2023/01/05 09:33:54;;;;;;;8.27;1.00;;;;;;;-147.11;100.00;61570.13;4940707;28;20444;-50
2023/01/05 09:36:20;;;;;;;1.85;0.93;;;;;;;-147.11;100.00;61570.13;4946132;28;20080;-50
2023/01/05 09:38:50;;;;;;;7.53;0.80;;;;;;;-147.11;100.00;61570.13;4938557;28;20080;-51
2023/01/05 09:41:37;;;;;;;3.00;0.80;;;;;;;-147.11;100.00;61570.13;4939027;28;20513;-49
2023/01/05 09:44:43;;;;;;;4.45;0.68;;;;;;;-147.11;100.00;61570.13;4943036;28;20139;-50
2023/01/05 09:47:18;;;;;;;2.30;0.40;;;;;;;-147.11;100.00;61570.13;4947409;28;20503;-50
2023/01/05 09:49:47;;;;;;;3.08;0.52;;;;;;;-147.11;100.00;61570.13;4942364;28;20118;-50
2023/01/05 09:52:13;;;;;;;3.42;0.50;;;;;;;-147.11;100.00;61570.13;4945053;28;20096;-56
2023/01/05 09:54:39;;;;;;;5.25;1.38;;;;;;;-147.11;100.00;61570.13;4948773;28;20611;-54
2023/01/05 09:57:13;;;;;;;6.20;0.77;;;;;;;-147.11;100.00;61570.13;4939034;28;20088;-51
2023/01/05 09:59:45;;;;;;;6.57;0.63;;;;;;;-147.11;100.00;61570.13;4944755;28;20068;-50
2023/01/05 10:02:31;;;;;;;2.45;0.43;;;;;;;-147.11;100.00;61570.13;4943932;28;20127;-51
2023/01/05 10:04:59;;;;;;;2.03;0.90;;;;;;;-147.11;100.00;61570.13;4950846;28;20098;-51
2023/01/05 10:07:36;;;;;;;5.07;0.80;;;;;;;-147.11;100.00;61570.13;4947191;28;20083;-50
2023/01/05 10:10:07;;;;;;;3.13;0.57;;;;;;;-147.11;100.00;61570.13;4944391;28;20210;-53
2023/01/05 10:13:01;;;;;;;5.57;0.57;;;;;;;-147.11;100.00;61570.13;4938770;28;20182;-51
2023/01/05 10:15:44;;;;;;;3.72;0.88;;;;;;;-147.11;100.00;61570.13;4933991;28;20082;-51
2023/01/05 10:18:15;;;;;;;4.85;0.90;;;;;;;-147.11;100.00;61570.13;4941196;28;20075;-51
2023/01/05 10:20:49;;;;;;;5.22;1.00;;;;;;;-147.11;100.00;61570.13;4938327;28;20115;-52
2023/01/05 10:23:29;;;;;;;3.70;0.95;;;;;;;-147.11;100.00;61570.13;4932688;28;20138;-57
2023/01/05 10:26:01;;;;;;;2.38;0.60;;;;;;;-147.11;100.00;61570.13;4943789;28;20458;-51
2023/01/05 10:28:32;;;;;;;7.97;0.80;;;;;;;-147.11;100.00;61570.13;4941131;28;20088;-52
2023/01/05 10:31:01;;;;;;;4.17;0.80;;;;;;;-147.11;100.00;61570.13;4945915;28;20134;-51
2023/01/05 10:33:51;;;;;;;4.40;0.52;;;;;;;-147.11;100.00;61570.13;4948625;28;20221;-54
2023/01/05 10:36:39;;;;;;;3.53;0.77;;;;;;;-147.11;100.00;61570.13;4948997;28;20094;-51
2023/01/05 10:39:23;;;;;;;2.15;0.40;;;;;;;-147.11;100.00;61570.13;4948171;28;20159;-54
2023/01/05 10:41:57;;;;;;;6.93;0.80;;;;;;;-147.11;100.00;61570.13;4940885;28;20130;-53
2023/01/05 10:44:57;;;;;;;5.40;0.90;;;;;;;-147.11;100.00;61570.13;4946953;28;20173;-51
2023/01/05 10:47:26;;;;;;;5.43;0.57;;;;;;;-147.11;100.00;61570.13;4949608;28;20088;-54
2023/01/05 10:49:52;;;;;;;6.60;0.65;;;;;;;-147.11;100.00;61570.13;4944820;28;20090;-53
2023/01/05 10:52:20;;;;;;;6.05;0.70;;;;;;;-147.11;100.00;61570.13;4952900;28;20104;-52
2023/01/05 10:54:51;;;;;;;5.88;0.75;;;;;;;-147.11;100.00;61570.13;4949416;28;20086;-52
2023/01/05 10:57:29;;;;;;;6.50;0.98;;;;;;;-147.11;100.00;61570.13;4942028;28;20524;-55
2023/01/05 11:00:08;;;;;;;4.45;0.60;;;;;;;-147.11;100.00;61570.13;4945439;28;20079;-55
2023/01/05 11:02:40;;;;;;;2.65;1.35;;;;;;;-147.11;100.00;61570.13;4948658;28;20174;-54
2023/01/05 11:05:08;;;;;;;3.60;0.45;;;;;;;-147.11;100.00;61570.13;4945633;28;20132;-54
2023/01/05 11:07:50;;;;;;;2.47;0.60;;;;;;;-147.11;100.00;61570.13;4942673;28;20074;-55
2023/01/05 11:10:50;;;;;;;4.10;0.52;;;;;;;-147.11;100.00;61570.13;4946053;28;20089;-57
2023/01/05 11:13:31;;;;;;;7.22;0.77;;;;;;;-147.11;100.00;61570.13;4938495;28;20100;-53
2023/01/05 11:16:13;;;;;;;2.03;0.60;;;;;;;-147.11;100.00;61570.13;4941516;28;20139;-55
2023/01/05 11:18:49;;;;;;;0.43;0.20;;;;;;;-147.11;100.00;61570.13;4948957;28;20122;-55
2023/01/05 11:21:18;;;;;;;1.80;0.50;;;;;;;-147.11;100.00;61570.13;4930402;28;20083;-55
2023/01/05 11:24:23;;;;;;;1.35;0.43;;;;;;;-147.11;100.00;61570.13;4948925;28;20104;-56
2023/01/05 11:26:52;;;;;;;3.42;0.47;;;;;;;-147.11;100.00;61570.13;4950506;28;20086;-54
2023/01/05 11:29:18;;;;;;;1.70;0.52;;;;;;;-147.11;100.00;61570.13;4955134;28;20094;-54
2023/01/05 11:32:09;;;;;;;4.13;0.80;;;;;;;-147.11;100.00;61570.13;4958270;28;20083;-57
2023/01/05 11:34:47;;;;;;;4.32;0.55;;;;;;;-147.11;100.00;61570.13;4955121;28;20088;-53
2023/01/05 11:37:30;;;;;;;2.25;1.00;;;;;;;-147.11;100.00;61570.13;4958538;28;20095;-55
2023/01/05 11:39:59;;;;;;;3.72;0.35;;;;;;;-147.11;100.00;61570.13;4952960;28;20083;-54
2023/01/05 11:42:25;;;;;;;2.53;0.40;;;;;;;-147.11;100.00;61570.13;4953572;28;20106;-52
2023/01/05 11:44:57;;;;;;;1.50;0.40;;;;;;;-147.11;100.00;61570.13;4948687;28;20072;-55
2023/01/05 11:47:35;;;;;;;4.68;0.63;;;;;;;-147.11;100.00;61570.13;4951659;28;20570;-54
2023/01/05 11:50:32;;;;;;;3.83;0.47;;;;;;;-147.11;100.00;61570.13;4949547;28;20110;-53
2023/01/05 11:53:01;;;;;;;5.30;1.00;;;;;;;-147.11;100.00;61570.13;4944893;28;20103;-55
2023/01/05 11:55:39;;;;;;;3.58;0.40;;;;;;;-147.11;100.00;61570.13;4937176;28;20083;-53